<?xml version="1.0" encoding="utf-8"?>
<gpx xmlns:xsi="http://www.w3.org/2001/XMLSchema-instance" xmlns:xsd="http://www.w3.org/2001/XMLSchema" version="1.1" creator="Shapelink.com" xmlns="http://www.topografix.com/GPX/1/1" xmlns:gpxtpx="http://www.garmin.com/xmlschemas/TrackPointExtension/v1">
  <metadata>
    <name>Cycling 15.15 km, 2020-09-06</name>
    <desc></desc>
    <author><name>Marian Moron</name></author> 
    <time>2020-09-06T14:56:49Z</time>
  </metadata>
  <trk>
    <name>Cycling 15.15 km, 2020-09-06</name>
    <trkseg>
      <trkpt lat="51.228719797635" lon="4.449178653191">
        <ele>0</ele>
        <time>2020-09-06T14:56:49Z</time>
      </trkpt>
      <trkpt lat="51.228748379914" lon="4.448674481906">
        <ele>3</ele>
        <time>2020-09-06T14:57:03Z</time>
      </trkpt>
      <trkpt lat="51.228746703534" lon="4.448711948999">
        <ele>0</ele>
        <time>2020-09-06T14:57:07Z</time>
      </trkpt>
      <trkpt lat="51.228794731821" lon="4.448756959802">
        <ele>0</ele>
        <time>2020-09-06T14:57:13Z</time>
      </trkpt>
      <trkpt lat="51.228824822842" lon="4.448720414718">
        <ele>0</ele>
        <time>2020-09-06T14:57:17Z</time>
      </trkpt>
      <trkpt lat="51.228973769205" lon="4.448428389322">
        <ele>0</ele>
        <time>2020-09-06T14:57:30Z</time>
      </trkpt>
      <trkpt lat="51.22879649202" lon="4.448176597046">
        <ele>0</ele>
        <time>2020-09-06T14:57:40Z</time>
      </trkpt>
      <trkpt lat="51.22891635319" lon="4.448169220974">
        <ele>0</ele>
        <time>2020-09-06T14:59:39Z</time>
      </trkpt>
      <trkpt lat="51.228876874441" lon="4.448104261249">
        <ele>0</ele>
        <time>2020-09-06T14:59:42Z</time>
      </trkpt>
      <trkpt lat="51.228512177972" lon="4.44743446362">
        <ele>0</ele>
        <time>2020-09-06T15:00:10Z</time>
      </trkpt>
      <trkpt lat="51.228399106141" lon="4.447170266132">
        <ele>0</ele>
        <time>2020-09-06T15:00:17Z</time>
      </trkpt>
      <trkpt lat="51.228734885055" lon="4.446485213445">
        <ele>0</ele>
        <time>2020-09-06T15:00:38Z</time>
      </trkpt>
      <trkpt lat="51.229095474393" lon="4.445838214584">
        <ele>0</ele>
        <time>2020-09-06T15:00:57Z</time>
      </trkpt>
      <trkpt lat="51.229489926607" lon="4.44522164202">
        <ele>0</ele>
        <time>2020-09-06T15:01:15Z</time>
      </trkpt>
      <trkpt lat="51.229739707227" lon="4.444896508119">
        <ele>0</ele>
        <time>2020-09-06T15:01:27Z</time>
      </trkpt>
      <trkpt lat="51.229794105758" lon="4.444942776207">
        <ele>0</ele>
        <time>2020-09-06T15:01:29Z</time>
      </trkpt>
      <trkpt lat="51.230021255248" lon="4.445757077792">
        <ele>0</ele>
        <time>2020-09-06T15:01:47Z</time>
      </trkpt>
      <trkpt lat="51.230256535181" lon="4.44657867163">
        <ele>0</ele>
        <time>2020-09-06T15:02:05Z</time>
      </trkpt>
      <trkpt lat="51.230490557829" lon="4.447364307117">
        <ele>0</ele>
        <time>2020-09-06T15:02:22Z</time>
      </trkpt>
      <trkpt lat="51.230712845817" lon="4.448186068593">
        <ele>0</ele>
        <time>2020-09-06T15:02:39Z</time>
      </trkpt>
      <trkpt lat="51.230919794928" lon="4.449025683516">
        <ele>0</ele>
        <time>2020-09-06T15:02:55Z</time>
      </trkpt>
      <trkpt lat="51.231099251407" lon="4.449856329806">
        <ele>0</ele>
        <time>2020-09-06T15:03:10Z</time>
      </trkpt>
      <trkpt lat="51.231268062873" lon="4.450714887823">
        <ele>0</ele>
        <time>2020-09-06T15:03:27Z</time>
      </trkpt>
      <trkpt lat="51.231442154936" lon="4.451580570455">
        <ele>0</ele>
        <time>2020-09-06T15:03:44Z</time>
      </trkpt>
      <trkpt lat="51.231590933661" lon="4.452442565051">
        <ele>0</ele>
        <time>2020-09-06T15:04:00Z</time>
      </trkpt>
      <trkpt lat="51.231727810088" lon="4.453304978742">
        <ele>0</ele>
        <time>2020-09-06T15:04:16Z</time>
      </trkpt>
      <trkpt lat="51.231869631836" lon="4.454138893973">
        <ele>0</ele>
        <time>2020-09-06T15:04:32Z</time>
      </trkpt>
      <trkpt lat="51.232022601511" lon="4.454988650995">
        <ele>0</ele>
        <time>2020-09-06T15:04:49Z</time>
      </trkpt>
      <trkpt lat="51.232036431646" lon="4.455059980964">
        <ele>0</ele>
        <time>2020-09-06T15:04:52Z</time>
      </trkpt>
      <trkpt lat="51.232050932333" lon="4.455136759168">
        <ele>0.4</ele>
        <time>2020-09-06T15:05:16Z</time>
      </trkpt>
      <trkpt lat="51.232224437663" lon="4.45595298859">
        <ele>1.2</ele>
        <time>2020-09-06T15:05:37Z</time>
      </trkpt>
      <trkpt lat="51.232431051498" lon="4.456798303205">
        <ele>2.6</ele>
        <time>2020-09-06T15:05:54Z</time>
      </trkpt>
      <trkpt lat="51.232549739202" lon="4.457667003321">
        <ele>2.4</ele>
        <time>2020-09-06T15:06:12Z</time>
      </trkpt>
      <trkpt lat="51.232689716932" lon="4.458500583276">
        <ele>1.8</ele>
        <time>2020-09-06T15:06:30Z</time>
      </trkpt>
      <trkpt lat="51.232817373269" lon="4.459384957545">
        <ele>0.4</ele>
        <time>2020-09-06T15:06:47Z</time>
      </trkpt>
      <trkpt lat="51.232951735126" lon="4.460258435344">
        <ele>0</ele>
        <time>2020-09-06T15:07:03Z</time>
      </trkpt>
      <trkpt lat="51.233127671207" lon="4.461077933707">
        <ele>1</ele>
        <time>2020-09-06T15:07:17Z</time>
      </trkpt>
      <trkpt lat="51.233317269785" lon="4.461933390421">
        <ele>5.8</ele>
        <time>2020-09-06T15:07:32Z</time>
      </trkpt>
      <trkpt lat="51.233414583644" lon="4.462811478265">
        <ele>3.4</ele>
        <time>2020-09-06T15:07:48Z</time>
      </trkpt>
      <trkpt lat="51.23353645647" lon="4.463649165351">
        <ele>2.8</ele>
        <time>2020-09-06T15:08:03Z</time>
      </trkpt>
      <trkpt lat="51.233609379" lon="4.464053592026">
        <ele>8.4</ele>
        <time>2020-09-06T15:08:15Z</time>
      </trkpt>
      <trkpt lat="51.233616755072" lon="4.464075217328">
        <ele>7.8</ele>
        <time>2020-09-06T15:08:35Z</time>
      </trkpt>
      <trkpt lat="51.233753296223" lon="4.464953808086">
        <ele>7.8</ele>
        <time>2020-09-06T15:08:56Z</time>
      </trkpt>
      <trkpt lat="51.233907607002" lon="4.465776659209">
        <ele>8</ele>
        <time>2020-09-06T15:09:12Z</time>
      </trkpt>
      <trkpt lat="51.234037526452" lon="4.466641000737">
        <ele>8.2</ele>
        <time>2020-09-06T15:09:28Z</time>
      </trkpt>
      <trkpt lat="51.234185718444" lon="4.467517160744">
        <ele>8.4</ele>
        <time>2020-09-06T15:09:46Z</time>
      </trkpt>
      <trkpt lat="51.23430340032" lon="4.468355937477">
        <ele>8.2</ele>
        <time>2020-09-06T15:10:02Z</time>
      </trkpt>
      <trkpt lat="51.234408509346" lon="4.469210136906">
        <ele>6.8</ele>
        <time>2020-09-06T15:10:18Z</time>
      </trkpt>
      <trkpt lat="51.234625768194" lon="4.470054613331">
        <ele>10.2</ele>
        <time>2020-09-06T15:10:34Z</time>
      </trkpt>
      <trkpt lat="51.234680166725" lon="4.470936808306">
        <ele>6.6</ele>
        <time>2020-09-06T15:10:51Z</time>
      </trkpt>
      <trkpt lat="51.234807236329" lon="4.471813722684">
        <ele>5.4</ele>
        <time>2020-09-06T15:11:07Z</time>
      </trkpt>
      <trkpt lat="51.234942520195" lon="4.472668760303">
        <ele>3.6</ele>
        <time>2020-09-06T15:11:22Z</time>
      </trkpt>
      <trkpt lat="51.235125077977" lon="4.473498903679">
        <ele>4</ele>
        <time>2020-09-06T15:11:37Z</time>
      </trkpt>
      <trkpt lat="51.235264971888" lon="4.474366597967">
        <ele>2.6</ele>
        <time>2020-09-06T15:11:55Z</time>
      </trkpt>
      <trkpt lat="51.235471501904" lon="4.475169081073">
        <ele>4</ele>
        <time>2020-09-06T15:12:10Z</time>
      </trkpt>
      <trkpt lat="51.23558080188" lon="4.476003834494">
        <ele>2</ele>
        <time>2020-09-06T15:12:27Z</time>
      </trkpt>
      <trkpt lat="51.235716085746" lon="4.476839258467">
        <ele>0</ele>
        <time>2020-09-06T15:12:44Z</time>
      </trkpt>
      <trkpt lat="51.235876347674" lon="4.47769312262">
        <ele>0</ele>
        <time>2020-09-06T15:13:00Z</time>
      </trkpt>
      <trkpt lat="51.235995789749" lon="4.478552602646">
        <ele>0</ele>
        <time>2020-09-06T15:13:16Z</time>
      </trkpt>
      <trkpt lat="51.236117914032" lon="4.47943739601">
        <ele>4.6</ele>
        <time>2020-09-06T15:13:32Z</time>
      </trkpt>
      <trkpt lat="51.23611389072" lon="4.480324787763">
        <ele>11.8</ele>
        <time>2020-09-06T15:13:48Z</time>
      </trkpt>
      <trkpt lat="51.236044069493" lon="4.481198097924">
        <ele>4.6</ele>
        <time>2020-09-06T15:14:04Z</time>
      </trkpt>
      <trkpt lat="51.236005261296" lon="4.482066295126">
        <ele>5.2</ele>
        <time>2020-09-06T15:14:20Z</time>
      </trkpt>
      <trkpt lat="51.235999310147" lon="4.482956285268">
        <ele>3</ele>
        <time>2020-09-06T15:14:38Z</time>
      </trkpt>
      <trkpt lat="51.236031580462" lon="4.483080672664">
        <ele>2.4</ele>
        <time>2020-09-06T15:14:42Z</time>
      </trkpt>
      <trkpt lat="51.23606276113" lon="4.483108835848">
        <ele>1</ele>
        <time>2020-09-06T15:14:47Z</time>
      </trkpt>
      <trkpt lat="51.236077597093" lon="4.483109254943">
        <ele>0.6</ele>
        <time>2020-09-06T15:14:56Z</time>
      </trkpt>
      <trkpt lat="51.236133085271" lon="4.483098190835">
        <ele>0</ele>
        <time>2020-09-06T15:14:59Z</time>
      </trkpt>
      <trkpt lat="51.236249928957" lon="4.483105902183">
        <ele>0</ele>
        <time>2020-09-06T15:15:03Z</time>
      </trkpt>
      <trkpt lat="51.236275829028" lon="4.483172789745">
        <ele>0</ele>
        <time>2020-09-06T15:15:05Z</time>
      </trkpt>
      <trkpt lat="51.236274655562" lon="4.483852478016">
        <ele>0</ele>
        <time>2020-09-06T15:15:19Z</time>
      </trkpt>
      <trkpt lat="51.236311871198" lon="4.484760153967">
        <ele>0</ele>
        <time>2020-09-06T15:15:37Z</time>
      </trkpt>
      <trkpt lat="51.236331568663" lon="4.485670763583">
        <ele>0</ele>
        <time>2020-09-06T15:15:54Z</time>
      </trkpt>
      <trkpt lat="51.236328886455" lon="4.486543151735">
        <ele>0</ele>
        <time>2020-09-06T15:16:09Z</time>
      </trkpt>
      <trkpt lat="51.236352942508" lon="4.487429453841">
        <ele>0</ele>
        <time>2020-09-06T15:16:24Z</time>
      </trkpt>
      <trkpt lat="51.23637289143" lon="4.48829957888">
        <ele>0</ele>
        <time>2020-09-06T15:16:37Z</time>
      </trkpt>
      <trkpt lat="51.236391666886" lon="4.489178337276">
        <ele>0</ele>
        <time>2020-09-06T15:16:50Z</time>
      </trkpt>
      <trkpt lat="51.236366353548" lon="4.490087019055">
        <ele>0</ele>
        <time>2020-09-06T15:17:03Z</time>
      </trkpt>
      <trkpt lat="51.236370712136" lon="4.490345516851">
        <ele>0</ele>
        <time>2020-09-06T15:17:10Z</time>
      </trkpt>
      <trkpt lat="51.236356379087" lon="4.490393712776">
        <ele>0</ele>
        <time>2020-09-06T15:17:44Z</time>
      </trkpt>
      <trkpt lat="51.236162170464" lon="4.491245397635">
        <ele>0</ele>
        <time>2020-09-06T15:18:05Z</time>
      </trkpt>
      <trkpt lat="51.235931332938" lon="4.492061878514">
        <ele>0</ele>
        <time>2020-09-06T15:18:19Z</time>
      </trkpt>
      <trkpt lat="51.235690688589" lon="4.492874838995">
        <ele>0</ele>
        <time>2020-09-06T15:18:33Z</time>
      </trkpt>
      <trkpt lat="51.235457923226" lon="4.493663324328">
        <ele>0</ele>
        <time>2020-09-06T15:18:48Z</time>
      </trkpt>
      <trkpt lat="51.235233455944" lon="4.494465891253">
        <ele>0</ele>
        <time>2020-09-06T15:19:03Z</time>
      </trkpt>
      <trkpt lat="51.234993985061" lon="4.495264267228">
        <ele>0</ele>
        <time>2020-09-06T15:19:18Z</time>
      </trkpt>
      <trkpt lat="51.234754011264" lon="4.496096506079">
        <ele>0</ele>
        <time>2020-09-06T15:19:33Z</time>
      </trkpt>
      <trkpt lat="51.234527951421" lon="4.496887170706">
        <ele>0</ele>
        <time>2020-09-06T15:19:47Z</time>
      </trkpt>
      <trkpt lat="51.234299628465" lon="4.49767976317">
        <ele>0</ele>
        <time>2020-09-06T15:20:02Z</time>
      </trkpt>
      <trkpt lat="51.234036939719" lon="4.498474534928">
        <ele>0</ele>
        <time>2020-09-06T15:20:19Z</time>
      </trkpt>
      <trkpt lat="51.233720690632" lon="4.499213064137">
        <ele>0</ele>
        <time>2020-09-06T15:20:37Z</time>
      </trkpt>
      <trkpt lat="51.233363537873" lon="4.499884705784">
        <ele>0</ele>
        <time>2020-09-06T15:20:55Z</time>
      </trkpt>
      <trkpt lat="51.232977802835" lon="4.500563639684">
        <ele>0</ele>
        <time>2020-09-06T15:21:11Z</time>
      </trkpt>
      <trkpt lat="51.232624002836" lon="4.501261432859">
        <ele>0</ele>
        <time>2020-09-06T15:21:26Z</time>
      </trkpt>
      <trkpt lat="51.232289313569" lon="4.501972888531">
        <ele>0</ele>
        <time>2020-09-06T15:21:41Z</time>
      </trkpt>
      <trkpt lat="51.231970214636" lon="4.502683841289">
        <ele>0</ele>
        <time>2020-09-06T15:21:55Z</time>
      </trkpt>
      <trkpt lat="51.231943727832" lon="4.503005706249">
        <ele>0</ele>
        <time>2020-09-06T15:22:01Z</time>
      </trkpt>
      <trkpt lat="51.231845324326" lon="4.503060523875">
        <ele>0</ele>
        <time>2020-09-06T15:22:05Z</time>
      </trkpt>
      <trkpt lat="51.231823447567" lon="4.503090111982">
        <ele>0</ele>
        <time>2020-09-06T15:22:08Z</time>
      </trkpt>
      <trkpt lat="51.231810874717" lon="4.50311039618">
        <ele>0</ele>
        <time>2020-09-06T15:23:18Z</time>
      </trkpt>
      <trkpt lat="51.231533769103" lon="4.503891924536">
        <ele>0</ele>
        <time>2020-09-06T15:23:39Z</time>
      </trkpt>
      <trkpt lat="51.231311984029" lon="4.504680661326">
        <ele>0</ele>
        <time>2020-09-06T15:23:54Z</time>
      </trkpt>
      <trkpt lat="51.231070669128" lon="4.505515582385">
        <ele>0</ele>
        <time>2020-09-06T15:24:09Z</time>
      </trkpt>
      <trkpt lat="51.230622488935" lon="4.50710604791">
        <ele>0</ele>
        <time>2020-09-06T15:24:38Z</time>
      </trkpt>
      <trkpt lat="51.23047957754" lon="4.507949518507">
        <ele>1.8</ele>
        <time>2020-09-06T15:24:54Z</time>
      </trkpt>
      <trkpt lat="51.230314370291" lon="4.508807825067">
        <ele>2.6</ele>
        <time>2020-09-06T15:25:12Z</time>
      </trkpt>
      <trkpt lat="51.230155281829" lon="4.509670657853">
        <ele>3</ele>
        <time>2020-09-06T15:25:31Z</time>
      </trkpt>
      <trkpt lat="51.23000348562" lon="4.510495352994">
        <ele>3.6</ele>
        <time>2020-09-06T15:25:47Z</time>
      </trkpt>
      <trkpt lat="51.229813551766" lon="4.511329100587">
        <ele>3.8</ele>
        <time>2020-09-06T15:26:03Z</time>
      </trkpt>
      <trkpt lat="51.229606602655" lon="4.512131332236">
        <ele>6</ele>
        <time>2020-09-06T15:26:20Z</time>
      </trkpt>
      <trkpt lat="51.229413567498" lon="4.51298762714">
        <ele>4.6</ele>
        <time>2020-09-06T15:26:37Z</time>
      </trkpt>
      <trkpt lat="51.229211479889" lon="4.513808466607">
        <ele>4.4</ele>
        <time>2020-09-06T15:26:54Z</time>
      </trkpt>
      <trkpt lat="51.228965219667" lon="4.514563508159">
        <ele>4</ele>
        <time>2020-09-06T15:27:14Z</time>
      </trkpt>
      <trkpt lat="51.22879984478" lon="4.515382838884">
        <ele>1.4</ele>
        <time>2020-09-06T15:27:32Z</time>
      </trkpt>
      <trkpt lat="51.228602283397" lon="4.516192781881">
        <ele>0.2</ele>
        <time>2020-09-06T15:27:49Z</time>
      </trkpt>
      <trkpt lat="51.228380079228" lon="4.51703189389">
        <ele>0</ele>
        <time>2020-09-06T15:28:05Z</time>
      </trkpt>
      <trkpt lat="51.228085790719" lon="4.517784337053">
        <ele>1.8</ele>
        <time>2020-09-06T15:28:19Z</time>
      </trkpt>
      <trkpt lat="51.227783204129" lon="4.518556310043">
        <ele>3.4</ele>
        <time>2020-09-06T15:28:34Z</time>
      </trkpt>
      <trkpt lat="51.227469972526" lon="4.519256617788">
        <ele>0.8</ele>
        <time>2020-09-06T15:28:50Z</time>
      </trkpt>
      <trkpt lat="51.227071413181" lon="4.519668169078">
        <ele>1.4</ele>
        <time>2020-09-06T15:29:09Z</time>
      </trkpt>
      <trkpt lat="51.227211893825" lon="4.520529241665">
        <ele>5.4</ele>
        <time>2020-09-06T15:29:27Z</time>
      </trkpt>
      <trkpt lat="51.227315075014" lon="4.521413867391">
        <ele>3.4</ele>
        <time>2020-09-06T15:29:45Z</time>
      </trkpt>
      <trkpt lat="51.227511379112" lon="4.522254488142">
        <ele>5.8</ele>
        <time>2020-09-06T15:30:00Z</time>
      </trkpt>
      <trkpt lat="51.227503081031" lon="4.523134420004">
        <ele>2.2</ele>
        <time>2020-09-06T15:30:17Z</time>
      </trkpt>
      <trkpt lat="51.22767918475" lon="4.523935310549">
        <ele>3</ele>
        <time>2020-09-06T15:30:35Z</time>
      </trkpt>
      <trkpt lat="51.227895270132" lon="4.524740140587">
        <ele>0.2</ele>
        <time>2020-09-06T15:30:51Z</time>
      </trkpt>
      <trkpt lat="51.228044300314" lon="4.525576067474">
        <ele>0</ele>
        <time>2020-09-06T15:31:07Z</time>
      </trkpt>
      <trkpt lat="51.228159970534" lon="4.526458765363">
        <ele>0</ele>
        <time>2020-09-06T15:31:23Z</time>
      </trkpt>
      <trkpt lat="51.228291817821" lon="4.527307851833">
        <ele>0</ele>
        <time>2020-09-06T15:31:39Z</time>
      </trkpt>
      <trkpt lat="51.228373122251" lon="4.528182838374">
        <ele>0</ele>
        <time>2020-09-06T15:31:53Z</time>
      </trkpt>
      <trkpt lat="51.228438333433" lon="4.529042569857">
        <ele>0</ele>
        <time>2020-09-06T15:32:09Z</time>
      </trkpt>
      <trkpt lat="51.228442356745" lon="4.529104428279">
        <ele>0</ele>
        <time>2020-09-06T15:32:12Z</time>
      </trkpt>
      <trkpt lat="51.228412684819" lon="4.52906075858">
        <ele>0.4</ele>
        <time>2020-09-06T15:40:14Z</time>
      </trkpt>
      <trkpt lat="51.228386952386" lon="4.529068386109">
        <ele>0.4</ele>
        <time>2020-09-06T15:40:16Z</time>
      </trkpt>
      <trkpt lat="51.228306318508" lon="4.529934906931">
        <ele>0</ele>
        <time>2020-09-06T15:40:34Z</time>
      </trkpt>
      <trkpt lat="51.228196264161" lon="4.53076396066">
        <ele>0</ele>
        <time>2020-09-06T15:40:55Z</time>
      </trkpt>
      <trkpt lat="51.227761746465" lon="4.531022542275">
        <ele>0</ele>
        <time>2020-09-06T15:41:23Z</time>
      </trkpt>
      <trkpt lat="51.227658062362" lon="4.531015920574">
        <ele>0</ele>
        <time>2020-09-06T15:41:26Z</time>
      </trkpt>
      <trkpt lat="51.22712765573" lon="4.530691541044">
        <ele>0</ele>
        <time>2020-09-06T15:41:44Z</time>
      </trkpt>
      <trkpt lat="51.226616695106" lon="4.530387026617">
        <ele>0</ele>
        <time>2020-09-06T15:42:02Z</time>
      </trkpt>
      <trkpt lat="51.226218973951" lon="4.530182675895">
        <ele>0</ele>
        <time>2020-09-06T15:42:17Z</time>
      </trkpt>
      <trkpt lat="51.226235653932" lon="4.530198014772">
        <ele>0</ele>
        <time>2020-09-06T15:42:31Z</time>
      </trkpt>
      <trkpt lat="51.226387785417" lon="4.530154177435">
        <ele>0</ele>
        <time>2020-09-06T15:42:44Z</time>
      </trkpt>
      <trkpt lat="51.226581491126" lon="4.529315735978">
        <ele>0</ele>
        <time>2020-09-06T15:43:00Z</time>
      </trkpt>
      <trkpt lat="51.226783830192" lon="4.528476037236">
        <ele>0.4</ele>
        <time>2020-09-06T15:43:15Z</time>
      </trkpt>
      <trkpt lat="51.22687200778" lon="4.528253916886">
        <ele>0</ele>
        <time>2020-09-06T15:43:21Z</time>
      </trkpt>
      <trkpt lat="51.227374586504" lon="4.528408395303">
        <ele>0</ele>
        <time>2020-09-06T15:43:40Z</time>
      </trkpt>
      <trkpt lat="51.22755932358" lon="4.527941355835">
        <ele>0</ele>
        <time>2020-09-06T15:43:51Z</time>
      </trkpt>
      <trkpt lat="51.227351787736" lon="4.527125545508">
        <ele>0</ele>
        <time>2020-09-06T15:44:09Z</time>
      </trkpt>
      <trkpt lat="51.227304010906" lon="4.526660517696">
        <ele>0</ele>
        <time>2020-09-06T15:44:22Z</time>
      </trkpt>
      <trkpt lat="51.226768994229" lon="4.526692285097">
        <ele>0</ele>
        <time>2020-09-06T15:44:45Z</time>
      </trkpt>
      <trkpt lat="51.226439753197" lon="4.525991222981">
        <ele>0</ele>
        <time>2020-09-06T15:45:05Z</time>
      </trkpt>
      <trkpt lat="51.226059634032" lon="4.525382026489">
        <ele>0</ele>
        <time>2020-09-06T15:45:28Z</time>
      </trkpt>
      <trkpt lat="51.225577339506" lon="4.52502906468">
        <ele>0</ele>
        <time>2020-09-06T15:45:57Z</time>
      </trkpt>
      <trkpt lat="51.225231837588" lon="4.524995788537">
        <ele>0.2</ele>
        <time>2020-09-06T15:46:13Z</time>
      </trkpt>
      <trkpt lat="51.225236196176" lon="4.52493183464">
        <ele>0.8</ele>
        <time>2020-09-06T15:46:15Z</time>
      </trkpt>
      <trkpt lat="51.225547751399" lon="4.524219624597">
        <ele>0</ele>
        <time>2020-09-06T15:46:38Z</time>
      </trkpt>
      <trkpt lat="51.225627966182" lon="4.523454524765">
        <ele>0.6</ele>
        <time>2020-09-06T15:47:04Z</time>
      </trkpt>
      <trkpt lat="51.225651016407" lon="4.523388391574">
        <ele>0</ele>
        <time>2020-09-06T15:47:07Z</time>
      </trkpt>
      <trkpt lat="51.225717065779" lon="4.523406915573">
        <ele>0</ele>
        <time>2020-09-06T15:47:11Z</time>
      </trkpt>
      <trkpt lat="51.226225511833" lon="4.523686954852">
        <ele>0</ele>
        <time>2020-09-06T15:47:31Z</time>
      </trkpt>
      <trkpt lat="51.22674041195" lon="4.523540606878">
        <ele>2</ele>
        <time>2020-09-06T15:47:51Z</time>
      </trkpt>
      <trkpt lat="51.226801516001" lon="4.523599447816">
        <ele>1.4</ele>
        <time>2020-09-06T15:47:54Z</time>
      </trkpt>
      <trkpt lat="51.227314823557" lon="4.523298118511">
        <ele>6.8</ele>
        <time>2020-09-06T15:48:13Z</time>
      </trkpt>
      <trkpt lat="51.22747801915" lon="4.52318756125">
        <ele>8.8</ele>
        <time>2020-09-06T15:48:22Z</time>
      </trkpt>
      <trkpt lat="51.227483635023" lon="4.523103155517">
        <ele>7.6</ele>
        <time>2020-09-06T15:48:25Z</time>
      </trkpt>
      <trkpt lat="51.2274989739" lon="4.522909701265">
        <ele>4.2</ele>
        <time>2020-09-06T15:48:33Z</time>
      </trkpt>
      <trkpt lat="51.227528729645" lon="4.522888159782">
        <ele>5</ele>
        <time>2020-09-06T15:49:14Z</time>
      </trkpt>
      <trkpt lat="51.22755848539" lon="4.522852955802">
        <ele>5.2</ele>
        <time>2020-09-06T15:49:17Z</time>
      </trkpt>
      <trkpt lat="51.227569214222" lon="4.522795623606">
        <ele>5</ele>
        <time>2020-09-06T15:49:19Z</time>
      </trkpt>
      <trkpt lat="51.227440216781" lon="4.52195709833">
        <ele>4</ele>
        <time>2020-09-06T15:49:36Z</time>
      </trkpt>
      <trkpt lat="51.227346926234" lon="4.52106610236">
        <ele>3</ele>
        <time>2020-09-06T15:49:53Z</time>
      </trkpt>
      <trkpt lat="51.227224801951" lon="4.520184577937">
        <ele>3</ele>
        <time>2020-09-06T15:50:09Z</time>
      </trkpt>
      <trkpt lat="51.227160931873" lon="4.519455520275">
        <ele>4</ele>
        <time>2020-09-06T15:50:28Z</time>
      </trkpt>
      <trkpt lat="51.226997317185" lon="4.518611127669">
        <ele>4</ele>
        <time>2020-09-06T15:50:50Z</time>
      </trkpt>
      <trkpt lat="51.226891453788" lon="4.517720802251">
        <ele>5.4</ele>
        <time>2020-09-06T15:51:09Z</time>
      </trkpt>
      <trkpt lat="51.226788775513" lon="4.516862076596">
        <ele>2</ele>
        <time>2020-09-06T15:51:26Z</time>
      </trkpt>
      <trkpt lat="51.226618455305" lon="4.516014247411">
        <ele>5.8</ele>
        <time>2020-09-06T15:51:44Z</time>
      </trkpt>
      <trkpt lat="51.226442770681" lon="4.515162897828">
        <ele>1</ele>
        <time>2020-09-06T15:52:02Z</time>
      </trkpt>
      <trkpt lat="51.226307486815" lon="4.514291180228">
        <ele>2.2</ele>
        <time>2020-09-06T15:52:19Z</time>
      </trkpt>
      <trkpt lat="51.226155020054" lon="4.513516860306">
        <ele>1</ele>
        <time>2020-09-06T15:52:35Z</time>
      </trkpt>
      <trkpt lat="51.22619391207" lon="4.513414014393">
        <ele>1.4</ele>
        <time>2020-09-06T15:52:38Z</time>
      </trkpt>
      <trkpt lat="51.226146554335" lon="4.513041103662">
        <ele>2.2</ele>
        <time>2020-09-06T15:52:44Z</time>
      </trkpt>
      <trkpt lat="51.226110428346" lon="4.512909424013">
        <ele>3.2</ele>
        <time>2020-09-06T15:52:46Z</time>
      </trkpt>
      <trkpt lat="51.22607656547" lon="4.51279065249">
        <ele>3.4</ele>
        <time>2020-09-06T15:52:48Z</time>
      </trkpt>
      <trkpt lat="51.226070781959" lon="4.512687303663">
        <ele>3.4</ele>
        <time>2020-09-06T15:52:50Z</time>
      </trkpt>
      <trkpt lat="51.22604387606" lon="4.512597365876">
        <ele>6</ele>
        <time>2020-09-06T15:52:52Z</time>
      </trkpt>
      <trkpt lat="51.225901635217" lon="4.511746686845">
        <ele>3</ele>
        <time>2020-09-06T15:53:13Z</time>
      </trkpt>
      <trkpt lat="51.225734667769" lon="4.510910676139">
        <ele>3.8</ele>
        <time>2020-09-06T15:53:31Z</time>
      </trkpt>
      <trkpt lat="51.225553115815" lon="4.510076928546">
        <ele>3.4</ele>
        <time>2020-09-06T15:53:48Z</time>
      </trkpt>
      <trkpt lat="51.225392770068" lon="4.509244689695">
        <ele>3.4</ele>
        <time>2020-09-06T15:54:08Z</time>
      </trkpt>
      <trkpt lat="51.225212894494" lon="4.508401638193">
        <ele>2.6</ele>
        <time>2020-09-06T15:54:28Z</time>
      </trkpt>
      <trkpt lat="51.225045172675" lon="4.507538721588">
        <ele>2</ele>
        <time>2020-09-06T15:54:52Z</time>
      </trkpt>
      <trkpt lat="51.22488130653" lon="4.506719139406">
        <ele>1.2</ele>
        <time>2020-09-06T15:55:12Z</time>
      </trkpt>
      <trkpt lat="51.224741915533" lon="4.50588564327">
        <ele>0</ele>
        <time>2020-09-06T15:55:34Z</time>
      </trkpt>
      <trkpt lat="51.224697323825" lon="4.505686908421">
        <ele>0</ele>
        <time>2020-09-06T15:55:43Z</time>
      </trkpt>
      <trkpt lat="51.224663293311" lon="4.505548271795">
        <ele>0</ele>
        <time>2020-09-06T15:55:50Z</time>
      </trkpt>
      <trkpt lat="51.224557178457" lon="4.505063043604">
        <ele>0</ele>
        <time>2020-09-06T15:56:06Z</time>
      </trkpt>
      <trkpt lat="51.224546701082" lon="4.505038903732">
        <ele>1.4</ele>
        <time>2020-09-06T15:58:31Z</time>
      </trkpt>
      <trkpt lat="51.224377302883" lon="4.504182608828">
        <ele>1</ele>
        <time>2020-09-06T15:58:56Z</time>
      </trkpt>
      <trkpt lat="51.22420321082" lon="4.503364619207">
        <ele>0.8</ele>
        <time>2020-09-06T15:59:13Z</time>
      </trkpt>
      <trkpt lat="51.224037500657" lon="4.502547216319">
        <ele>0.8</ele>
        <time>2020-09-06T15:59:29Z</time>
      </trkpt>
      <trkpt lat="51.223871622856" lon="4.501714055459">
        <ele>0.4</ele>
        <time>2020-09-06T15:59:44Z</time>
      </trkpt>
      <trkpt lat="51.223790066969" lon="4.501346760601">
        <ele>0.2</ele>
        <time>2020-09-06T15:59:51Z</time>
      </trkpt>
      <trkpt lat="51.223761652328" lon="4.50119932298">
        <ele>0</ele>
        <time>2020-09-06T15:59:54Z</time>
      </trkpt>
      <trkpt lat="51.223742457777" lon="4.501112737953">
        <ele>0</ele>
        <time>2020-09-06T15:59:56Z</time>
      </trkpt>
      <trkpt lat="51.223716809163" lon="4.500971502938">
        <ele>0</ele>
        <time>2020-09-06T15:59:59Z</time>
      </trkpt>
      <trkpt lat="51.223697446974" lon="4.500868070292">
        <ele>0</ele>
        <time>2020-09-06T16:00:01Z</time>
      </trkpt>
      <trkpt lat="51.223661488623" lon="4.500702527767">
        <ele>0</ele>
        <time>2020-09-06T16:00:04Z</time>
      </trkpt>
      <trkpt lat="51.22351254226" lon="4.499965842576">
        <ele>0</ele>
        <time>2020-09-06T16:00:17Z</time>
      </trkpt>
      <trkpt lat="51.223374911462" lon="4.499125808558">
        <ele>0</ele>
        <time>2020-09-06T16:00:33Z</time>
      </trkpt>
      <trkpt lat="51.223214481896" lon="4.498275213346">
        <ele>0</ele>
        <time>2020-09-06T16:00:56Z</time>
      </trkpt>
      <trkpt lat="51.22317642807" lon="4.498088967528">
        <ele>0</ele>
        <time>2020-09-06T16:01:04Z</time>
      </trkpt>
      <trkpt lat="51.223173662043" lon="4.498068515692">
        <ele>0.4</ele>
        <time>2020-09-06T16:01:58Z</time>
      </trkpt>
      <trkpt lat="51.2231152402" lon="4.497701975205">
        <ele>0.2</ele>
        <time>2020-09-06T16:02:08Z</time>
      </trkpt>
      <trkpt lat="51.2231571497" lon="4.497598626378">
        <ele>0</ele>
        <time>2020-09-06T16:02:12Z</time>
      </trkpt>
      <trkpt lat="51.222785747711" lon="4.496337150428">
        <ele>0</ele>
        <time>2020-09-06T16:02:41Z</time>
      </trkpt>
      <trkpt lat="51.222629760552" lon="4.495470964882">
        <ele>0</ele>
        <time>2020-09-06T16:02:57Z</time>
      </trkpt>
      <trkpt lat="51.222635711701" lon="4.495309194212">
        <ele>0</ele>
        <time>2020-09-06T16:03:00Z</time>
      </trkpt>
      <trkpt lat="51.22241786612" lon="4.494484247614">
        <ele>0</ele>
        <time>2020-09-06T16:03:18Z</time>
      </trkpt>
      <trkpt lat="51.222248970835" lon="4.493653685143">
        <ele>0</ele>
        <time>2020-09-06T16:03:33Z</time>
      </trkpt>
      <trkpt lat="51.222079907912" lon="4.492823374129">
        <ele>0</ele>
        <time>2020-09-06T16:03:48Z</time>
      </trkpt>
      <trkpt lat="51.221904810021" lon="4.491957775316">
        <ele>0</ele>
        <time>2020-09-06T16:04:03Z</time>
      </trkpt>
      <trkpt lat="51.221725856456" lon="4.491105336086">
        <ele>0</ele>
        <time>2020-09-06T16:04:18Z</time>
      </trkpt>
      <trkpt lat="51.221715881995" lon="4.491039538171">
        <ele>0</ele>
        <time>2020-09-06T16:04:19Z</time>
      </trkpt>
      <trkpt lat="51.221549752737" lon="4.490180812516">
        <ele>0</ele>
        <time>2020-09-06T16:04:35Z</time>
      </trkpt>
      <trkpt lat="51.221516895689" lon="4.49001451562">
        <ele>0</ele>
        <time>2020-09-06T16:04:38Z</time>
      </trkpt>
      <trkpt lat="51.221485882659" lon="4.489856013891">
        <ele>0</ele>
        <time>2020-09-06T16:04:41Z</time>
      </trkpt>
      <trkpt lat="51.221410529378" lon="4.489365505103">
        <ele>0</ele>
        <time>2020-09-06T16:04:50Z</time>
      </trkpt>
      <trkpt lat="51.221904223288" lon="4.488938698755">
        <ele>0</ele>
        <time>2020-09-06T16:05:06Z</time>
      </trkpt>
      <trkpt lat="51.22225274269" lon="4.48837501598">
        <ele>0</ele>
        <time>2020-09-06T16:05:22Z</time>
      </trkpt>
      <trkpt lat="51.222036824946" lon="4.48754436969">
        <ele>1.2</ele>
        <time>2020-09-06T16:05:38Z</time>
      </trkpt>
      <trkpt lat="51.221800287728" lon="4.486708526622">
        <ele>1.2</ele>
        <time>2020-09-06T16:05:55Z</time>
      </trkpt>
      <trkpt lat="51.221582861242" lon="4.485879975807">
        <ele>0.4</ele>
        <time>2020-09-06T16:06:11Z</time>
      </trkpt>
      <trkpt lat="51.2213801869" lon="4.48507422376">
        <ele>0</ele>
        <time>2020-09-06T16:06:26Z</time>
      </trkpt>
      <trkpt lat="51.221151947763" lon="4.484245002393">
        <ele>0</ele>
        <time>2020-09-06T16:06:42Z</time>
      </trkpt>
      <trkpt lat="51.220930162689" lon="4.48341628394">
        <ele>0</ele>
        <time>2020-09-06T16:06:59Z</time>
      </trkpt>
      <trkpt lat="51.220788340941" lon="4.482861988893">
        <ele>0</ele>
        <time>2020-09-06T16:07:13Z</time>
      </trkpt>
      <trkpt lat="51.220975424949" lon="4.4822042612">
        <ele>0</ele>
        <time>2020-09-06T16:07:33Z</time>
      </trkpt>
      <trkpt lat="51.22088314023" lon="4.481810647176">
        <ele>0</ele>
        <time>2020-09-06T16:07:42Z</time>
      </trkpt>
      <trkpt lat="51.220860592919" lon="4.481673267835">
        <ele>0</ele>
        <time>2020-09-06T16:07:45Z</time>
      </trkpt>
      <trkpt lat="51.220666635753" lon="4.480839855518">
        <ele>0</ele>
        <time>2020-09-06T16:08:01Z</time>
      </trkpt>
      <trkpt lat="51.2205839064" lon="4.480500807663">
        <ele>0</ele>
        <time>2020-09-06T16:08:08Z</time>
      </trkpt>
      <trkpt lat="51.221101404906" lon="4.480163771464">
        <ele>0</ele>
        <time>2020-09-06T16:08:24Z</time>
      </trkpt>
      <trkpt lat="51.221591159323" lon="4.480046927778">
        <ele>0</ele>
        <time>2020-09-06T16:08:43Z</time>
      </trkpt>
      <trkpt lat="51.221596691377" lon="4.480024715743">
        <ele>0</ele>
        <time>2020-09-06T16:08:47Z</time>
      </trkpt>
      <trkpt lat="51.221609767141" lon="4.480010634151">
        <ele>0</ele>
        <time>2020-09-06T16:08:48Z</time>
      </trkpt>
      <trkpt lat="51.22212533781" lon="4.479711651778">
        <ele>0</ele>
        <time>2020-09-06T16:09:08Z</time>
      </trkpt>
      <trkpt lat="51.22264166285" lon="4.479343351092">
        <ele>21.6</ele>
        <time>2020-09-06T16:09:25Z</time>
      </trkpt>
      <trkpt lat="51.223194784431" lon="4.479192560711">
        <ele>28.8</ele>
        <time>2020-09-06T16:09:42Z</time>
      </trkpt>
      <trkpt lat="51.223748157469" lon="4.479208318683">
        <ele>36.8</ele>
        <time>2020-09-06T16:09:57Z</time>
      </trkpt>
      <trkpt lat="51.224307481656" lon="4.479284258697">
        <ele>24.2</ele>
        <time>2020-09-06T16:10:13Z</time>
      </trkpt>
      <trkpt lat="51.224857166658" lon="4.479277804634">
        <ele>21.2</ele>
        <time>2020-09-06T16:10:31Z</time>
      </trkpt>
      <trkpt lat="51.225419843605" lon="4.479153501057">
        <ele>43</ele>
        <time>2020-09-06T16:10:49Z</time>
      </trkpt>
      <trkpt lat="51.225973971014" lon="4.479289958389">
        <ele>11.8</ele>
        <time>2020-09-06T16:11:06Z</time>
      </trkpt>
      <trkpt lat="51.226512508089" lon="4.479311835148">
        <ele>6.4</ele>
        <time>2020-09-06T16:11:24Z</time>
      </trkpt>
      <trkpt lat="51.226691377835" lon="4.479299429936">
        <ele>6.6</ele>
        <time>2020-09-06T16:11:31Z</time>
      </trkpt>
      <trkpt lat="51.226664052841" lon="4.479287611457">
        <ele>6.2</ele>
        <time>2020-09-06T16:11:35Z</time>
      </trkpt>
      <trkpt lat="51.226630189965" lon="4.479329018043">
        <ele>5.6</ele>
        <time>2020-09-06T16:11:52Z</time>
      </trkpt>
      <trkpt lat="51.227060516711" lon="4.479198847136">
        <ele>5.4</ele>
        <time>2020-09-06T16:12:11Z</time>
      </trkpt>
      <trkpt lat="51.227059929978" lon="4.479125002597">
        <ele>0.8</ele>
        <time>2020-09-06T16:12:15Z</time>
      </trkpt>
      <trkpt lat="51.22704718949" lon="4.478926351567">
        <ele>0</ele>
        <time>2020-09-06T16:12:26Z</time>
      </trkpt>
      <trkpt lat="51.22696923782" lon="4.478043066945">
        <ele>0</ele>
        <time>2020-09-06T16:12:44Z</time>
      </trkpt>
      <trkpt lat="51.226952222563" lon="4.477160955789">
        <ele>0</ele>
        <time>2020-09-06T16:13:00Z</time>
      </trkpt>
      <trkpt lat="51.226823560398" lon="4.476410775739">
        <ele>0</ele>
        <time>2020-09-06T16:13:16Z</time>
      </trkpt>
      <trkpt lat="51.226435729885" lon="4.475759669747">
        <ele>0</ele>
        <time>2020-09-06T16:13:31Z</time>
      </trkpt>
      <trkpt lat="51.226075894918" lon="4.475123064442">
        <ele>0</ele>
        <time>2020-09-06T16:13:45Z</time>
      </trkpt>
      <trkpt lat="51.225968355141" lon="4.474816035445">
        <ele>0</ele>
        <time>2020-09-06T16:13:52Z</time>
      </trkpt>
      <trkpt lat="51.226387953055" lon="4.474233409576">
        <ele>0</ele>
        <time>2020-09-06T16:14:08Z</time>
      </trkpt>
      <trkpt lat="51.226535223038" lon="4.474058144047">
        <ele>0.4</ele>
        <time>2020-09-06T16:14:19Z</time>
      </trkpt>
      <trkpt lat="51.226524494206" lon="4.474002655869">
        <ele>0</ele>
        <time>2020-09-06T16:14:21Z</time>
      </trkpt>
      <trkpt lat="51.226145548507" lon="4.473371331161">
        <ele>0</ele>
        <time>2020-09-06T16:14:39Z</time>
      </trkpt>
      <trkpt lat="51.22583432856" lon="4.472670771959">
        <ele>0</ele>
        <time>2020-09-06T16:14:57Z</time>
      </trkpt>
      <trkpt lat="51.225773475966" lon="4.471886729033">
        <ele>0</ele>
        <time>2020-09-06T16:15:13Z</time>
      </trkpt>
      <trkpt lat="51.225773559785" lon="4.471015095252">
        <ele>0</ele>
        <time>2020-09-06T16:15:28Z</time>
      </trkpt>
      <trkpt lat="51.225797615838" lon="4.47014941262">
        <ele>0</ele>
        <time>2020-09-06T16:15:43Z</time>
      </trkpt>
      <trkpt lat="51.225855450948" lon="4.469263613428">
        <ele>0</ele>
        <time>2020-09-06T16:15:58Z</time>
      </trkpt>
      <trkpt lat="51.225819576416" lon="4.468403546669">
        <ele>0</ele>
        <time>2020-09-06T16:16:14Z</time>
      </trkpt>
      <trkpt lat="51.225831562533" lon="4.467519842952">
        <ele>0</ele>
        <time>2020-09-06T16:16:30Z</time>
      </trkpt>
      <trkpt lat="51.225846566134" lon="4.466604539472">
        <ele>0</ele>
        <time>2020-09-06T16:16:46Z</time>
      </trkpt>
      <trkpt lat="51.225875735146" lon="4.466259875744">
        <ele>0</ele>
        <time>2020-09-06T16:16:54Z</time>
      </trkpt>
      <trkpt lat="51.225900629389" lon="4.466293487163">
        <ele>0</ele>
        <time>2020-09-06T16:17:02Z</time>
      </trkpt>
      <trkpt lat="51.226027196079" lon="4.466266832721">
        <ele>9</ele>
        <time>2020-09-06T16:23:21Z</time>
      </trkpt>
      <trkpt lat="51.226067764475" lon="4.466269347291">
        <ele>8.2</ele>
        <time>2020-09-06T16:23:24Z</time>
      </trkpt>
      <trkpt lat="51.226603870799" lon="4.466409995573">
        <ele>6.4</ele>
        <time>2020-09-06T16:23:44Z</time>
      </trkpt>
      <trkpt lat="51.227153304344" lon="4.466561540325">
        <ele>0</ele>
        <time>2020-09-06T16:24:07Z</time>
      </trkpt>
      <trkpt lat="51.227389757743" lon="4.466755078396">
        <ele>0</ele>
        <time>2020-09-06T16:24:22Z</time>
      </trkpt>
      <trkpt lat="51.227412891787" lon="4.466759520803">
        <ele>0</ele>
        <time>2020-09-06T16:24:37Z</time>
      </trkpt>
      <trkpt lat="51.227853025356" lon="4.466752144731">
        <ele>0</ele>
        <time>2020-09-06T16:24:56Z</time>
      </trkpt>
      <trkpt lat="51.228229372666" lon="4.466152755062">
        <ele>0</ele>
        <time>2020-09-06T16:25:13Z</time>
      </trkpt>
      <trkpt lat="51.2286472942" lon="4.465559148904">
        <ele>0</ele>
        <time>2020-09-06T16:25:33Z</time>
      </trkpt>
      <trkpt lat="51.228611671125" lon="4.464742751844">
        <ele>0</ele>
        <time>2020-09-06T16:25:49Z</time>
      </trkpt>
      <trkpt lat="51.228564983942" lon="4.464626830167">
        <ele>0</ele>
        <time>2020-09-06T16:25:52Z</time>
      </trkpt>
      <trkpt lat="51.228755672167" lon="4.464252578332">
        <ele>0</ele>
        <time>2020-09-06T16:26:02Z</time>
      </trkpt>
      <trkpt lat="51.229219358875" lon="4.463942112756">
        <ele>0</ele>
        <time>2020-09-06T16:26:19Z</time>
      </trkpt>
      <trkpt lat="51.229191782424" lon="4.463058828134">
        <ele>0</ele>
        <time>2020-09-06T16:26:33Z</time>
      </trkpt>
      <trkpt lat="51.229215084106" lon="4.463018427376">
        <ele>0</ele>
        <time>2020-09-06T16:26:34Z</time>
      </trkpt>
      <trkpt lat="51.229771893723" lon="4.462982636663">
        <ele>0</ele>
        <time>2020-09-06T16:26:51Z</time>
      </trkpt>
      <trkpt lat="51.230153102535" lon="4.462922370802">
        <ele>0</ele>
        <time>2020-09-06T16:27:03Z</time>
      </trkpt>
      <trkpt lat="51.230004742905" lon="4.462134807478">
        <ele>0</ele>
        <time>2020-09-06T16:27:22Z</time>
      </trkpt>
      <trkpt lat="51.229978842834" lon="4.462064148061">
        <ele>0</ele>
        <time>2020-09-06T16:27:24Z</time>
      </trkpt>
      <trkpt lat="51.229918996068" lon="4.461823252255">
        <ele>0</ele>
        <time>2020-09-06T16:27:30Z</time>
      </trkpt>
      <trkpt lat="51.229718584839" lon="4.461193855384">
        <ele>0</ele>
        <time>2020-09-06T16:27:43Z</time>
      </trkpt>
      <trkpt lat="51.229704587066" lon="4.461018003122">
        <ele>0</ele>
        <time>2020-09-06T16:27:46Z</time>
      </trkpt>
      <trkpt lat="51.230242537408" lon="4.460775430936">
        <ele>0</ele>
        <time>2020-09-06T16:28:04Z</time>
      </trkpt>
      <trkpt lat="51.230606814782" lon="4.460635537025">
        <ele>0</ele>
        <time>2020-09-06T16:28:16Z</time>
      </trkpt>
      <trkpt lat="51.230498185358" lon="4.459787288745">
        <ele>0</ele>
        <time>2020-09-06T16:28:32Z</time>
      </trkpt>
      <trkpt lat="51.230386789907" lon="4.458898052974">
        <ele>0</ele>
        <time>2020-09-06T16:28:47Z</time>
      </trkpt>
      <trkpt lat="51.230867408053" lon="4.458593203271">
        <ele>0</ele>
        <time>2020-09-06T16:29:04Z</time>
      </trkpt>
      <trkpt lat="51.231226823925" lon="4.458410896946">
        <ele>0</ele>
        <time>2020-09-06T16:29:15Z</time>
      </trkpt>
      <trkpt lat="51.231168066806" lon="4.457537670604">
        <ele>0</ele>
        <time>2020-09-06T16:29:35Z</time>
      </trkpt>
      <trkpt lat="51.231265967398" lon="4.456685147555">
        <ele>0</ele>
        <time>2020-09-06T16:29:51Z</time>
      </trkpt>
      <trkpt lat="51.231323467232" lon="4.456360684206">
        <ele>0</ele>
        <time>2020-09-06T16:29:59Z</time>
      </trkpt>
      <trkpt lat="51.231378703953" lon="4.456380800766">
        <ele>0</ele>
        <time>2020-09-06T16:30:04Z</time>
      </trkpt>
      <trkpt lat="51.231400999807" lon="4.456362109129">
        <ele>0</ele>
        <time>2020-09-06T16:30:06Z</time>
      </trkpt>
      <trkpt lat="51.231255154747" lon="4.455589968501">
        <ele>0</ele>
        <time>2020-09-06T16:30:25Z</time>
      </trkpt>
      <trkpt lat="51.231097658846" lon="4.454762507333">
        <ele>0</ele>
        <time>2020-09-06T16:30:38Z</time>
      </trkpt>
      <trkpt lat="51.230957848754" lon="4.453903865497">
        <ele>0</ele>
        <time>2020-09-06T16:30:54Z</time>
      </trkpt>
      <trkpt lat="51.230803286518" lon="4.453040445978">
        <ele>0</ele>
        <time>2020-09-06T16:31:08Z</time>
      </trkpt>
      <trkpt lat="51.230647634635" lon="4.452152802768">
        <ele>0</ele>
        <time>2020-09-06T16:31:22Z</time>
      </trkpt>
      <trkpt lat="51.230491815114" lon="4.451323413763">
        <ele>0</ele>
        <time>2020-09-06T16:31:36Z</time>
      </trkpt>
      <trkpt lat="51.230407912295" lon="4.450689825942">
        <ele>0</ele>
        <time>2020-09-06T16:31:50Z</time>
      </trkpt>
      <trkpt lat="51.229882534803" lon="4.45087942452">
        <ele>0</ele>
        <time>2020-09-06T16:32:07Z</time>
      </trkpt>
      <trkpt lat="51.229689248189" lon="4.450917478346">
        <ele>0</ele>
        <time>2020-09-06T16:32:14Z</time>
      </trkpt>
      <trkpt lat="51.229509037339" lon="4.450075767948">
        <ele>0</ele>
        <time>2020-09-06T16:32:30Z</time>
      </trkpt>
      <trkpt lat="51.229370149256" lon="4.449089553594">
        <ele>0</ele>
        <time>2020-09-06T16:32:54Z</time>
      </trkpt>
      <trkpt lat="51.22907225653" lon="4.448389748763">
        <ele>0</ele>
        <time>2020-09-06T16:33:14Z</time>
      </trkpt>
      <trkpt lat="51.229063706992" lon="4.448388575297">
        <ele>0</ele>
        <time>2020-09-06T16:33:15Z</time>
      </trkpt>
      <trkpt lat="51.228943678184" lon="4.448511202494">
        <ele>0</ele>
        <time>2020-09-06T16:33:24Z</time>
      </trkpt>
      <trkpt lat="51.228843849755" lon="4.448654532984">
        <ele>0</ele>
        <time>2020-09-06T16:33:29Z</time>
      </trkpt>
    </trkseg>
  </trk>
</gpx>